sensor_id;sensor_type;location;lat;lon;timestamp;P1;durP1;ratioP1;P2;durP2;ratioP2
17636;SDS011;8937;51.236;6.794;2023-03-23T00:08:14;1.10;;;1.10;;
17636;SDS011;8937;51.236;6.794;2023-03-23T00:16:36;1.10;;;1.10;;
17636;SDS011;8937;51.236;6.794;2023-03-23T00:25:00;1.13;;;1.13;;
17636;SDS011;8937;51.236;6.794;2023-03-23T00:33:23;1.23;;;1.13;;
17636;SDS011;8937;51.236;6.794;2023-03-23T00:41:46;0.90;;;0.90;;
17636;SDS011;8937;51.236;6.794;2023-03-23T00:50:09;1.20;;;1.20;;
17636;SDS011;8937;51.236;6.794;2023-03-23T00:58:33;1.37;;;1.20;;
17636;SDS011;8937;51.236;6.794;2023-03-23T01:06:55;1.20;;;1.20;;
17636;SDS011;8937;51.236;6.794;2023-03-23T01:15:17;1.10;;;1.10;;
17636;SDS011;8937;51.236;6.794;2023-03-23T01:23:40;0.87;;;0.87;;
17636;SDS011;8937;51.236;6.794;2023-03-23T01:32:01;1.00;;;1.00;;
17636;SDS011;8937;51.236;6.794;2023-03-23T01:40:25;1.10;;;1.10;;
17636;SDS011;8937;51.236;6.794;2023-03-23T01:48:47;1.40;;;1.30;;
17636;SDS011;8937;51.236;6.794;2023-03-23T01:57:11;1.40;;;1.10;;
17636;SDS011;8937;51.236;6.794;2023-03-23T02:05:36;1.20;;;1.20;;
17636;SDS011;8937;51.236;6.794;2023-03-23T02:14:00;1.27;;;1.17;;
17636;SDS011;8937;51.236;6.794;2023-03-23T02:31:16;1.43;;;1.33;;
17636;SDS011;8937;51.236;6.794;2023-03-23T02:39:44;1.37;;;1.37;;
17636;SDS011;8937;51.236;6.794;2023-03-23T02:48:06;1.40;;;1.30;;
17636;SDS011;8937;51.236;6.794;2023-03-23T02:56:30;1.13;;;1.03;;
17636;SDS011;8937;51.236;6.794;2023-03-23T03:04:53;1.30;;;1.20;;
17636;SDS011;8937;51.236;6.794;2023-03-23T03:13:20;1.20;;;1.10;;
17636;SDS011;8937;51.236;6.794;2023-03-23T03:21:45;1.23;;;1.07;;
17636;SDS011;8937;51.236;6.794;2023-03-23T03:30:10;1.00;;;1.00;;
17636;SDS011;8937;51.236;6.794;2023-03-23T03:38:40;1.30;;;1.20;;
17636;SDS011;8937;51.236;6.794;2023-03-23T03:47:03;1.10;;;1.10;;
17636;SDS011;8937;51.236;6.794;2023-03-23T03:55:25;1.83;;;1.43;;
17636;SDS011;8937;51.236;6.794;2023-03-23T04:03:49;1.33;;;1.23;;
17636;SDS011;8937;51.236;6.794;2023-03-23T04:12:11;1.53;;;1.40;;
17636;SDS011;8937;51.236;6.794;2023-03-23T04:20:33;1.40;;;1.30;;
17636;SDS011;8937;51.236;6.794;2023-03-23T04:28:55;1.50;;;1.40;;
17636;SDS011;8937;51.236;6.794;2023-03-23T04:37:17;1.50;;;1.40;;
17636;SDS011;8937;51.236;6.794;2023-03-23T04:45:39;1.57;;;1.47;;
17636;SDS011;8937;51.236;6.794;2023-03-23T04:54:06;1.63;;;1.50;;
17636;SDS011;8937;51.236;6.794;2023-03-23T05:02:28;1.23;;;1.13;;
17636;SDS011;8937;51.236;6.794;2023-03-23T05:10:52;1.17;;;1.17;;
17636;SDS011;8937;51.236;6.794;2023-03-23T05:19:14;1.20;;;1.20;;
17636;SDS011;8937;51.236;6.794;2023-03-23T05:27:37;1.00;;;1.00;;
17636;SDS011;8937;51.236;6.794;2023-03-23T05:36:02;1.40;;;1.30;;
17636;SDS011;8937;51.236;6.794;2023-03-23T05:44:26;1.30;;;1.20;;
17636;SDS011;8937;51.236;6.794;2023-03-23T05:52:48;1.00;;;1.00;;
17636;SDS011;8937;51.236;6.794;2023-03-23T06:01:11;1.73;;;1.37;;
17636;SDS011;8937;51.236;6.794;2023-03-23T06:09:34;1.23;;;1.13;;
17636;SDS011;8937;51.236;6.794;2023-03-23T06:17:59;1.30;;;1.20;;
17636;SDS011;8937;51.236;6.794;2023-03-23T06:26:20;2.13;;;1.40;;
17636;SDS011;8937;51.236;6.794;2023-03-23T06:34:45;2.83;;;1.10;;
17636;SDS011;8937;51.236;6.794;2023-03-23T06:43:07;1.40;;;1.30;;
17636;SDS011;8937;51.236;6.794;2023-03-23T06:51:31;1.90;;;1.27;;
17636;SDS011;8937;51.236;6.794;2023-03-23T06:59:52;3.33;;;1.23;;
17636;SDS011;8937;51.236;6.794;2023-03-23T07:08:15;1.73;;;1.40;;
17636;SDS011;8937;51.236;6.794;2023-03-23T07:16:36;2.10;;;1.20;;
17636;SDS011;8937;51.236;6.794;2023-03-23T07:24:59;0.93;;;0.93;;
17636;SDS011;8937;51.236;6.794;2023-03-23T07:33:21;1.77;;;1.23;;
17636;SDS011;8937;51.236;6.794;2023-03-23T07:41:44;1.40;;;1.30;;
17636;SDS011;8937;51.236;6.794;2023-03-23T07:50:06;1.40;;;1.03;;
17636;SDS011;8937;51.236;6.794;2023-03-23T07:58:29;2.90;;;1.20;;
17636;SDS011;8937;51.236;6.794;2023-03-23T08:06:51;1.30;;;1.20;;
17636;SDS011;8937;51.236;6.794;2023-03-23T08:15:15;1.87;;;1.17;;
17636;SDS011;8937;51.236;6.794;2023-03-23T08:23:36;0.97;;;0.93;;
17636;SDS011;8937;51.236;6.794;2023-03-23T08:31:59;1.00;;;0.90;;
17636;SDS011;8937;51.236;6.794;2023-03-23T08:40:23;1.80;;;1.50;;
17636;SDS011;8937;51.236;6.794;2023-03-23T08:48:46;2.13;;;1.23;;
17636;SDS011;8937;51.236;6.794;2023-03-23T08:57:08;3.37;;;1.30;;
17636;SDS011;8937;51.236;6.794;2023-03-23T09:05:30;2.10;;;1.53;;
17636;SDS011;8937;51.236;6.794;2023-03-23T09:13:52;1.20;;;1.07;;
17636;SDS011;8937;51.236;6.794;2023-03-23T09:22:15;4.73;;;1.47;;
17636;SDS011;8937;51.236;6.794;2023-03-23T09:30:40;2.67;;;1.10;;
17636;SDS011;8937;51.236;6.794;2023-03-23T09:39:04;2.77;;;1.00;;
17636;SDS011;8937;51.236;6.794;2023-03-23T09:47:29;2.70;;;1.30;;
17636;SDS011;8937;51.236;6.794;2023-03-23T09:55:55;2.57;;;1.50;;
17636;SDS011;8937;51.236;6.794;2023-03-23T10:04:20;0.70;;;0.70;;
17636;SDS011;8937;51.236;6.794;2023-03-23T10:12:48;0.83;;;0.70;;
17636;SDS011;8937;51.236;6.794;2023-03-23T10:21:11;1.40;;;0.53;;
17636;SDS011;8937;51.236;6.794;2023-03-23T10:29:38;0.63;;;0.63;;
17636;SDS011;8937;51.236;6.794;2023-03-23T10:38:01;0.50;;;0.50;;
17636;SDS011;8937;51.236;6.794;2023-03-23T10:46:27;1.27;;;0.80;;
17636;SDS011;8937;51.236;6.794;2023-03-23T10:54:51;1.07;;;0.60;;
17636;SDS011;8937;51.236;6.794;2023-03-23T11:03:25;1.07;;;0.70;;
17636;SDS011;8937;51.236;6.794;2023-03-23T11:11:49;0.67;;;0.67;;
17636;SDS011;8937;51.236;6.794;2023-03-23T11:20:12;1.80;;;0.70;;
17636;SDS011;8937;51.236;6.794;2023-03-23T11:28:35;0.73;;;0.73;;
17636;SDS011;8937;51.236;6.794;2023-03-23T11:37:00;0.60;;;0.60;;
17636;SDS011;8937;51.236;6.794;2023-03-23T11:45:24;0.60;;;0.60;;
17636;SDS011;8937;51.236;6.794;2023-03-23T11:53:48;1.00;;;1.00;;
17636;SDS011;8937;51.236;6.794;2023-03-23T12:02:21;1.03;;;0.93;;
17636;SDS011;8937;51.236;6.794;2023-03-23T12:10:47;0.80;;;0.80;;
17636;SDS011;8937;51.236;6.794;2023-03-23T12:19:14;0.83;;;0.77;;
17636;SDS011;8937;51.236;6.794;2023-03-23T12:27:40;1.27;;;1.27;;
17636;SDS011;8937;51.236;6.794;2023-03-23T12:36:08;1.47;;;1.20;;
17636;SDS011;8937;51.236;6.794;2023-03-23T12:44:35;1.57;;;1.30;;
17636;SDS011;8937;51.236;6.794;2023-03-23T12:53:06;1.53;;;1.23;;
17636;SDS011;8937;51.236;6.794;2023-03-23T13:01:35;1.00;;;1.00;;
17636;SDS011;8937;51.236;6.794;2023-03-23T13:10:00;1.20;;;1.20;;
17636;SDS011;8937;51.236;6.794;2023-03-23T13:18:27;1.20;;;1.20;;
17636;SDS011;8937;51.236;6.794;2023-03-23T13:26:55;1.37;;;1.27;;
17636;SDS011;8937;51.236;6.794;2023-03-23T13:35:19;1.40;;;1.23;;
17636;SDS011;8937;51.236;6.794;2023-03-23T13:43:43;1.77;;;1.30;;
17636;SDS011;8937;51.236;6.794;2023-03-23T13:52:17;1.50;;;1.50;;
17636;SDS011;8937;51.236;6.794;2023-03-23T14:00:48;1.70;;;1.47;;
17636;SDS011;8937;51.236;6.794;2023-03-23T14:09:12;1.40;;;1.40;;
17636;SDS011;8937;51.236;6.794;2023-03-23T14:17:37;1.73;;;1.13;;
17636;SDS011;8937;51.236;6.794;2023-03-23T14:26:00;1.07;;;1.03;;
17636;SDS011;8937;51.236;6.794;2023-03-23T14:34:28;1.10;;;1.00;;
17636;SDS011;8937;51.236;6.794;2023-03-23T14:42:52;2.23;;;1.20;;
17636;SDS011;8937;51.236;6.794;2023-03-23T14:51:17;2.27;;;1.53;;
17636;SDS011;8937;51.236;6.794;2023-03-23T14:59:40;1.10;;;1.10;;
17636;SDS011;8937;51.236;6.794;2023-03-23T15:08:03;3.70;;;1.80;;
17636;SDS011;8937;51.236;6.794;2023-03-23T15:16:27;1.97;;;1.10;;
17636;SDS011;8937;51.236;6.794;2023-03-23T15:24:49;1.80;;;1.30;;
17636;SDS011;8937;51.236;6.794;2023-03-23T15:33:14;1.40;;;1.30;;
17636;SDS011;8937;51.236;6.794;2023-03-23T15:41:44;1.53;;;1.13;;
17636;SDS011;8937;51.236;6.794;2023-03-23T15:50:11;1.37;;;1.13;;
17636;SDS011;8937;51.236;6.794;2023-03-23T15:58:33;1.67;;;1.47;;
17636;SDS011;8937;51.236;6.794;2023-03-23T16:06:56;3.47;;;1.33;;
17636;SDS011;8937;51.236;6.794;2023-03-23T16:15:18;1.50;;;1.37;;
17636;SDS011;8937;51.236;6.794;2023-03-23T16:23:41;6.13;;;1.60;;
17636;SDS011;8937;51.236;6.794;2023-03-23T16:32:05;2.50;;;1.77;;
17636;SDS011;8937;51.236;6.794;2023-03-23T16:40:28;2.50;;;1.40;;
17636;SDS011;8937;51.236;6.794;2023-03-23T16:48:49;3.20;;;1.77;;
17636;SDS011;8937;51.236;6.794;2023-03-23T16:57:12;2.83;;;1.40;;
17636;SDS011;8937;51.236;6.794;2023-03-23T17:05:34;1.77;;;1.33;;
17636;SDS011;8937;51.236;6.794;2023-03-23T17:13:57;2.37;;;1.37;;
17636;SDS011;8937;51.236;6.794;2023-03-23T17:22:19;3.23;;;1.50;;
17636;SDS011;8937;51.236;6.794;2023-03-23T17:30:42;2.57;;;1.40;;
17636;SDS011;8937;51.236;6.794;2023-03-23T17:39:04;3.10;;;1.50;;
17636;SDS011;8937;51.236;6.794;2023-03-23T17:47:27;3.47;;;1.70;;
17636;SDS011;8937;51.236;6.794;2023-03-23T17:55:48;2.90;;;2.30;;
17636;SDS011;8937;51.236;6.794;2023-03-23T18:04:12;2.00;;;1.77;;
17636;SDS011;8937;51.236;6.794;2023-03-23T18:12:33;4.57;;;2.37;;
17636;SDS011;8937;51.236;6.794;2023-03-23T18:20:56;4.43;;;2.73;;
17636;SDS011;8937;51.236;6.794;2023-03-23T18:29:18;2.43;;;1.93;;
17636;SDS011;8937;51.236;6.794;2023-03-23T18:37:40;1.90;;;1.67;;
17636;SDS011;8937;51.236;6.794;2023-03-23T18:46:02;6.83;;;2.03;;
17636;SDS011;8937;51.236;6.794;2023-03-23T18:54:26;2.47;;;1.53;;
17636;SDS011;8937;51.236;6.794;2023-03-23T19:02:47;3.23;;;1.57;;
17636;SDS011;8937;51.236;6.794;2023-03-23T19:11:11;3.37;;;1.60;;
17636;SDS011;8937;51.236;6.794;2023-03-23T19:19:32;2.23;;;1.70;;
17636;SDS011;8937;51.236;6.794;2023-03-23T19:27:55;2.90;;;1.43;;
17636;SDS011;8937;51.236;6.794;2023-03-23T19:36:17;3.00;;;1.57;;
17636;SDS011;8937;51.236;6.794;2023-03-23T19:44:40;3.23;;;1.53;;
17636;SDS011;8937;51.236;6.794;2023-03-23T19:53:02;1.67;;;1.57;;
17636;SDS011;8937;51.236;6.794;2023-03-23T20:01:24;1.50;;;1.40;;
17636;SDS011;8937;51.236;6.794;2023-03-23T20:09:47;1.50;;;1.40;;
17636;SDS011;8937;51.236;6.794;2023-03-23T20:18:09;2.87;;;1.60;;
17636;SDS011;8937;51.236;6.794;2023-03-23T20:26:34;1.87;;;1.67;;
17636;SDS011;8937;51.236;6.794;2023-03-23T20:34:57;2.50;;;1.67;;
17636;SDS011;8937;51.236;6.794;2023-03-23T20:43:19;1.90;;;1.53;;
17636;SDS011;8937;51.236;6.794;2023-03-23T20:51:45;2.07;;;1.70;;
17636;SDS011;8937;51.236;6.794;2023-03-23T21:00:07;1.87;;;1.53;;
17636;SDS011;8937;51.236;6.794;2023-03-23T21:08:37;1.83;;;1.60;;
17636;SDS011;8937;51.236;6.794;2023-03-23T21:16:58;2.50;;;1.70;;
17636;SDS011;8937;51.236;6.794;2023-03-23T21:25:22;1.73;;;1.57;;
17636;SDS011;8937;51.236;6.794;2023-03-23T21:33:43;2.17;;;1.60;;
17636;SDS011;8937;51.236;6.794;2023-03-23T21:42:06;1.90;;;1.70;;
17636;SDS011;8937;51.236;6.794;2023-03-23T21:50:27;1.93;;;1.50;;
17636;SDS011;8937;51.236;6.794;2023-03-23T21:58:50;1.70;;;1.60;;
17636;SDS011;8937;51.236;6.794;2023-03-23T22:07:12;2.10;;;1.57;;
17636;SDS011;8937;51.236;6.794;2023-03-23T22:15:35;3.03;;;1.33;;
17636;SDS011;8937;51.236;6.794;2023-03-23T22:23:57;1.30;;;1.20;;
17636;SDS011;8937;51.236;6.794;2023-03-23T22:32:20;2.00;;;1.40;;
17636;SDS011;8937;51.236;6.794;2023-03-23T22:40:41;1.60;;;1.50;;
17636;SDS011;8937;51.236;6.794;2023-03-23T22:49:04;1.23;;;1.20;;
17636;SDS011;8937;51.236;6.794;2023-03-23T22:57:25;1.40;;;1.30;;
17636;SDS011;8937;51.236;6.794;2023-03-23T23:05:49;1.60;;;1.50;;
17636;SDS011;8937;51.236;6.794;2023-03-23T23:14:10;1.63;;;0.90;;
17636;SDS011;8937;51.236;6.794;2023-03-23T23:22:33;1.27;;;1.10;;
17636;SDS011;8937;51.236;6.794;2023-03-23T23:30:55;1.80;;;1.20;;
17636;SDS011;8937;51.236;6.794;2023-03-23T23:39:17;2.00;;;1.10;;
17636;SDS011;8937;51.236;6.794;2023-03-23T23:47:39;1.27;;;1.27;;
17636;SDS011;8937;51.236;6.794;2023-03-23T23:56:02;1.17;;;1.10;;
